Time;durP1;ratioP1;P1;durP2;ratioP2;P2;SDS_P1;SDS_P2;PMS_P1;PMS_P2;Temp;Humidity;BMP_temperature;BMP_pressure;BME280_temperature;BME280_humidity;BME280_pressure;Samples;Min_cycle;Max_cycle;Signal;HPM_P1;HPM_P2
2023/10/27 00:02:24;;;;;;;4.45;1.20;;;9.80;99.90;;;;;;5012870;28;20510;-64
2023/10/27 00:04:56;;;;;;;2.83;1.00;;;9.80;99.90;;;;;;5014806;28;20132;-64
2023/10/27 00:07:22;;;;;;;4.25;0.90;;;9.80;99.90;;;;;;5021033;28;20049;-64
2023/10/27 00:09:54;;;;;;;2.15;0.77;;;9.70;99.90;;;;;;5029573;28;20046;-64
2023/10/27 00:12:26;;;;;;;6.70;1.40;;;9.70;99.90;;;;;;5016291;28;20513;-65
2023/10/27 00:14:58;;;;;;;5.10;0.93;;;9.70;99.90;;;;;;5016221;28;20038;-64
2023/10/27 00:17:30;;;;;;;3.25;1.02;;;9.60;99.90;;;;;;5014165;28;20124;-64
2023/10/27 00:20:05;;;;;;;1.90;0.73;;;9.60;99.90;;;;;;5014754;28;20050;-64
2023/10/27 00:22:37;;;;;;;3.63;0.80;;;9.60;99.90;;;;;;5011586;28;20108;-64
2023/10/27 00:25:10;;;;;;;2.80;0.90;;;9.60;99.90;;;;;;5017705;28;20529;-64
2023/10/27 00:27:42;;;;;;;5.95;1.35;;;9.50;99.90;;;;;;5009349;28;20050;-64
2023/10/27 00:30:09;;;;;;;1.48;0.57;;;9.50;99.90;;;;;;5009632;28;20048;-64
2023/10/27 00:32:41;;;;;;;4.30;0.83;;;9.50;99.90;;;;;;5005866;28;20069;-64
2023/10/27 00:35:13;;;;;;;3.38;1.17;;;9.40;99.90;;;;;;5026232;28;20038;-64
2023/10/27 00:37:45;;;;;;;4.32;0.98;;;9.40;99.90;;;;;;5006692;28;20046;-64
2023/10/27 00:40:17;;;;;;;2.42;0.80;;;9.40;99.90;;;;;;5022378;28;20056;-64
2023/10/27 00:42:49;;;;;;;1.33;0.77;;;9.40;99.90;;;;;;5002509;28;20056;-64
2023/10/27 00:45:21;;;;;;;2.92;0.80;;;9.30;99.90;;;;;;5017828;28;20053;-64
2023/10/27 00:47:53;;;;;;;2.80;0.90;;;9.30;99.90;;;;;;5029226;28;20111;-65
2023/10/27 00:50:26;;;;;;;2.95;0.70;;;9.30;99.90;;;;;;5023436;28;20129;-65
2023/10/27 00:52:57;;;;;;;2.75;0.93;;;9.20;99.90;;;;;;5023202;28;20042;-64
2023/10/27 00:55:30;;;;;;;3.90;1.00;;;9.20;99.90;;;;;;5013651;28;20161;-64
2023/10/27 00:58:03;;;;;;;3.55;0.65;;;9.20;99.90;;;;;;5015414;28;20053;-64
2023/10/27 01:00:36;;;;;;;5.03;1.20;;;9.30;99.90;;;;;;5030444;28;20042;-64
2023/10/27 01:03:08;;;;;;;2.03;1.00;;;9.30;99.90;;;;;;5007654;28;20042;-64
2023/10/27 01:05:40;;;;;;;1.98;0.70;;;9.30;99.90;;;;;;5027687;28;20050;-64
2023/10/27 01:08:12;;;;;;;4.63;0.90;;;9.30;99.90;;;;;;5013921;28;20050;-65
2023/10/27 01:10:44;;;;;;;1.80;0.80;;;9.30;99.90;;;;;;5013000;28;20054;-64
2023/10/27 01:13:16;;;;;;;4.22;1.13;;;9.30;99.90;;;;;;5028203;28;20050;-65
2023/10/27 01:15:48;;;;;;;3.03;1.02;;;9.30;99.90;;;;;;5036070;28;20046;-65
2023/10/27 01:18:19;;;;;;;1.52;0.80;;;9.20;99.90;;;;;;5021222;28;20038;-65
2023/10/27 01:20:51;;;;;;;2.33;0.80;;;9.30;99.90;;;;;;5020511;28;20076;-64
2023/10/27 01:23:23;;;;;;;2.03;0.77;;;9.30;99.90;;;;;;5012971;28;20042;-65
2023/10/27 01:25:55;;;;;;;1.77;0.70;;;9.20;99.90;;;;;;5027794;28;20045;-65
2023/10/27 01:28:27;;;;;;;2.10;1.25;;;9.20;99.90;;;;;;5026612;28;20046;-64
2023/10/27 01:30:59;;;;;;;4.32;1.23;;;9.20;99.90;;;;;;5009001;28;20149;-64
2023/10/27 01:33:31;;;;;;;6.07;1.05;;;9.30;99.90;;;;;;5009476;28;20043;-65
2023/10/27 01:36:03;;;;;;;2.97;0.98;;;9.30;99.90;;;;;;5010648;28;20413;-64
2023/10/27 01:38:35;;;;;;;2.58;0.95;;;9.30;99.90;;;;;;5020428;28;20128;-64
2023/10/27 01:41:07;;;;;;;1.58;0.70;;;9.20;99.90;;;;;;5028595;28;20056;-64
2023/10/27 01:43:35;;;;;;;2.30;1.00;;;9.20;99.90;;;;;;5022216;28;20042;-65
2023/10/27 01:46:02;;;;;;;4.35;1.35;;;9.20;99.90;;;;;;5022917;28;20484;-64
2023/10/27 01:48:36;;;;;;;2.80;0.95;;;9.10;99.90;;;;;;5027783;28;20046;-64
2023/10/27 01:51:07;;;;;;;7.32;0.90;;;9.10;99.90;;;;;;5019851;28;20124;-65
2023/10/27 01:53:39;;;;;;;2.72;0.88;;;9.10;99.90;;;;;;5029501;28;20042;-64
2023/10/27 01:56:11;;;;;;;3.85;1.10;;;9.10;99.90;;;;;;5028443;28;20044;-64
2023/10/27 01:58:46;;;;;;;7.30;1.52;;;9.10;99.90;;;;;;5024461;28;20509;-64
2023/10/27 02:01:18;;;;;;;3.53;0.90;;;9.10;99.90;;;;;;5010270;28;20420;-64
2023/10/27 02:03:50;;;;;;;6.13;1.20;;;9.10;99.90;;;;;;5028828;28;20601;-64
2023/10/27 02:06:24;;;;;;;5.00;0.93;;;9.10;99.90;;;;;;5028485;28;20418;-65
2023/10/27 02:08:52;;;;;;;3.03;0.98;;;9.00;99.90;;;;;;5026384;28;20569;-64
2023/10/27 02:11:24;;;;;;;4.57;1.00;;;9.00;99.90;;;;;;5025113;28;20152;-64
2023/10/27 02:13:56;;;;;;;2.20;1.20;;;9.00;99.90;;;;;;5022784;28;20115;-64
2023/10/27 02:16:27;;;;;;;3.40;1.00;;;9.00;99.90;;;;;;5027464;28;20521;-64
2023/10/27 02:18:55;;;;;;;3.40;0.80;;;9.00;99.90;;;;;;5020085;28;20033;-64
2023/10/27 02:21:21;;;;;;;1.95;1.10;;;9.00;99.90;;;;;;5018588;28;20092;-64
2023/10/27 02:23:53;;;;;;;3.08;1.08;;;8.90;99.90;;;;;;4998545;28;20049;-64
2023/10/27 02:26:25;;;;;;;2.13;0.70;;;9.00;99.90;;;;;;5010476;28;20049;-64
2023/10/27 02:28:57;;;;;;;2.83;1.60;;;9.00;99.90;;;;;;5027650;28;20051;-64
2023/10/27 02:31:29;;;;;;;2.67;1.00;;;9.00;99.90;;;;;;5023255;28;20138;-64
2023/10/27 02:34:01;;;;;;;3.75;1.23;;;8.90;99.90;;;;;;5028949;28;20048;-64
2023/10/27 02:36:33;;;;;;;2.47;0.90;;;9.00;99.90;;;;;;5028404;28;20128;-64
2023/10/27 02:38:59;;;;;;;1.15;0.65;;;8.90;99.90;;;;;;5023809;28;20045;-64
2023/10/27 02:41:27;;;;;;;4.60;1.30;;;8.90;99.90;;;;;;5014901;28;20120;-64
2023/10/27 02:43:59;;;;;;;4.47;1.15;;;8.90;99.90;;;;;;5023706;28;20521;-64
2023/10/27 02:46:26;;;;;;;3.05;1.08;;;8.90;99.90;;;;;;5021892;28;20204;-64
2023/10/27 02:48:57;;;;;;;3.67;1.40;;;8.90;99.90;;;;;;5002962;28;20057;-64
2023/10/27 02:51:30;;;;;;;2.05;1.00;;;9.00;99.90;;;;;;5026705;28;20053;-64
2023/10/27 02:53:57;;;;;;;1.73;1.02;;;9.10;99.90;;;;;;5034890;28;20044;-64
2023/10/27 02:56:29;;;;;;;2.92;1.10;;;9.10;99.90;;;;;;5027661;28;20549;-64
2023/10/27 02:59:05;;;;;;;2.65;1.02;;;9.10;99.90;;;;;;5000383;28;20123;-64
2023/10/27 03:01:37;;;;;;;2.92;0.98;;;9.10;99.90;;;;;;5041350;28;20041;-64
2023/10/27 03:04:09;;;;;;;2.67;1.10;;;9.10;99.90;;;;;;5020710;28;20107;-64
2023/10/27 03:06:42;;;;;;;3.72;1.45;;;9.10;99.90;;;;;;5018607;28;20050;-64
2023/10/27 03:09:14;;;;;;;1.38;1.10;;;9.10;99.90;;;;;;5012542;28;20060;-64
2023/10/27 03:11:46;;;;;;;1.63;0.90;;;9.10;99.90;;;;;;5026142;28;20046;-64
2023/10/27 03:14:18;;;;;;;2.53;1.00;;;9.00;99.90;;;;;;5015061;28;20046;-64
2023/10/27 03:16:45;;;;;;;3.40;1.55;;;9.10;99.90;;;;;;5026283;28;20132;-64
2023/10/27 03:19:17;;;;;;;2.83;1.33;;;9.10;99.90;;;;;;5036169;28;20046;-64
2023/10/27 03:21:49;;;;;;;2.33;1.27;;;9.10;99.90;;;;;;5033202;28;20050;-64
2023/10/27 03:24:22;;;;;;;3.30;1.60;;;9.20;99.90;;;;;;5020544;28;20049;-64
2023/10/27 03:26:54;;;;;;;3.17;1.63;;;9.20;99.90;;;;;;5023659;28;20110;-64
2023/10/27 03:29:27;;;;;;;2.92;1.70;;;9.20;99.90;;;;;;5023906;28;20509;-65
2023/10/27 03:32:00;;;;;;;5.15;2.38;;;9.10;99.90;;;;;;5024455;28;20150;-64
2023/10/27 03:34:31;;;;;;;3.95;2.22;;;9.00;99.90;;;;;;5012867;28;20038;-64
2023/10/27 03:37:05;;;;;;;3.45;1.95;;;9.00;99.90;;;;;;5020828;28;20046;-64
2023/10/27 03:39:37;;;;;;;2.83;2.30;;;9.00;99.90;;;;;;5008522;28;20042;-65
2023/10/27 03:42:08;;;;;;;3.85;2.13;;;9.00;99.90;;;;;;5028845;28;20042;-65
2023/10/27 03:44:40;;;;;;;4.70;1.77;;;9.00;99.90;;;;;;5018142;28;20038;-64
2023/10/27 03:47:12;;;;;;;3.10;2.10;;;9.00;99.90;;;;;;5017624;28;20061;-64
2023/10/27 03:49:44;;;;;;;3.35;2.50;;;9.00;99.90;;;;;;5024764;28;20053;-64
2023/10/27 03:52:16;;;;;;;5.80;1.83;;;9.00;99.90;;;;;;5021638;28;20050;-65
2023/10/27 03:54:43;;;;;;;4.30;2.35;;;9.00;99.90;;;;;;5022723;28;20044;-64
2023/10/27 03:57:15;;;;;;;5.28;2.75;;;9.00;99.90;;;;;;5026092;28;20038;-64
2023/10/27 03:59:47;;;;;;;3.45;2.45;;;9.00;99.90;;;;;;5023662;28;20544;-64
2023/10/27 04:02:18;;;;;;;4.78;2.97;;;9.00;99.90;;;;;;5015514;28;20052;-65
2023/10/27 04:04:51;;;;;;;4.85;2.63;;;9.00;99.90;;;;;;5017845;28;20042;-65
2023/10/27 04:07:23;;;;;;;3.45;2.45;;;9.10;99.90;;;;;;5032224;28;20038;-65
2023/10/27 04:09:54;;;;;;;4.65;3.13;;;9.10;99.90;;;;;;5016763;28;20498;-65
2023/10/27 04:12:26;;;;;;;3.63;2.63;;;9.10;99.90;;;;;;5015512;28;20044;-66
2023/10/27 04:14:58;;;;;;;4.32;2.75;;;9.10;99.90;;;;;;5018637;28;20046;-65
2023/10/27 04:17:30;;;;;;;4.63;3.15;;;9.10;99.90;;;;;;5012783;28;20065;-65
2023/10/27 04:20:03;;;;;;;5.10;3.10;;;9.10;99.90;;;;;;5020561;28;20049;-65
2023/10/27 04:22:31;;;;;;;4.68;2.88;;;9.10;99.90;;;;;;5019899;28;20413;-65
2023/10/27 04:25:03;;;;;;;3.55;2.90;;;9.10;99.90;;;;;;5004870;28;20552;-65
2023/10/27 04:27:35;;;;;;;6.00;3.35;;;9.10;99.90;;;;;;5023714;28;20037;-64
2023/10/27 04:30:08;;;;;;;4.45;3.13;;;9.10;99.90;;;;;;5015686;28;20410;-65
2023/10/27 04:32:40;;;;;;;4.38;3.65;;;9.10;99.90;;;;;;5016172;28;20041;-65
2023/10/27 04:35:13;;;;;;;6.18;3.72;;;9.00;99.90;;;;;;4998910;28;20038;-65
2023/10/27 04:37:45;;;;;;;5.05;3.42;;;9.00;99.90;;;;;;5010363;28;20043;-64
2023/10/27 04:40:13;;;;;;;4.25;3.25;;;8.90;99.90;;;;;;5009663;28;20133;-66
2023/10/27 04:42:45;;;;;;;4.78;3.25;;;9.00;99.90;;;;;;5009865;28;20044;-67
2023/10/27 04:45:17;;;;;;;4.50;3.30;;;9.00;99.90;;;;;;5014872;28;20042;-66
2023/10/27 04:47:49;;;;;;;5.25;3.15;;;9.10;99.90;;;;;;5014132;28;20052;-65
2023/10/27 04:50:21;;;;;;;4.47;3.20;;;9.10;99.90;;;;;;5014423;28;20038;-64
2023/10/27 04:52:52;;;;;;;3.85;2.88;;;9.10;99.90;;;;;;5010685;28;20042;-64
2023/10/27 04:55:50;;;;;;;3.40;2.50;;;9.10;99.90;;;;;;5007611;28;20057;-65
2023/10/27 04:58:17;;;;;;;4.72;3.00;;;9.20;99.90;;;;;;5009204;28;20628;-64
2023/10/27 05:00:49;;;;;;;4.50;2.72;;;9.20;99.90;;;;;;5016444;28;20469;-64
2023/10/27 05:03:21;;;;;;;3.97;3.17;;;9.20;99.90;;;;;;5008716;28;20046;-64
2023/10/27 05:05:53;;;;;;;3.47;2.90;;;9.20;99.90;;;;;;5008093;28;20050;-65
2023/10/27 05:08:25;;;;;;;3.17;2.55;;;9.20;99.90;;;;;;5004246;28;20126;-65
2023/10/27 05:10:57;;;;;;;3.65;3.05;;;9.20;99.90;;;;;;5001795;28;20505;-65
2023/10/27 05:13:29;;;;;;;4.10;2.85;;;9.20;99.90;;;;;;5006592;28;20042;-64
2023/10/27 05:16:00;;;;;;;3.45;2.70;;;9.20;99.90;;;;;;5006261;28;20517;-64
2023/10/27 05:18:32;;;;;;;4.05;3.00;;;9.20;99.90;;;;;;5018362;28;20612;-64
2023/10/27 05:21:04;;;;;;;3.78;3.00;;;9.30;99.90;;;;;;5011443;28;20120;-65
2023/10/27 05:23:32;;;;;;;5.85;4.18;;;9.30;99.90;;;;;;5023239;28;20045;-65
2023/10/27 05:26:04;;;;;;;3.53;2.78;;;9.30;99.90;;;;;;4999757;28;20072;-64
2023/10/27 05:28:36;;;;;;;4.23;2.83;;;9.30;99.90;;;;;;5011055;28;20426;-65
2023/10/27 05:31:08;;;;;;;3.85;3.00;;;9.30;99.90;;;;;;5019309;28;20107;-65
2023/10/27 05:33:40;;;;;;;5.60;2.90;;;9.20;99.90;;;;;;5007453;28;20120;-65
2023/10/27 05:36:07;;;;;;;5.10;3.22;;;9.30;99.90;;;;;;5016935;28;20034;-65
2023/10/27 05:38:34;;;;;;;4.68;3.42;;;9.20;99.90;;;;;;5004471;28;20069;-65
2023/10/27 05:41:06;;;;;;;3.83;3.00;;;9.20;99.90;;;;;;5002306;28;20056;-65
2023/10/27 05:43:38;;;;;;;3.60;2.70;;;9.20;99.90;;;;;;5007775;28;20037;-65
2023/10/27 05:46:10;;;;;;;4.18;3.08;;;9.20;99.90;;;;;;5007830;28;20588;-65
2023/10/27 05:48:37;;;;;;;4.05;2.78;;;9.20;99.90;;;;;;5014211;28;20113;-65
2023/10/27 05:51:09;;;;;;;3.47;2.70;;;9.30;99.90;;;;;;5009436;28;20045;-65
2023/10/27 05:53:41;;;;;;;3.25;2.72;;;9.30;99.90;;;;;;5014361;28;20048;-65
2023/10/27 05:56:13;;;;;;;3.00;2.42;;;9.30;99.90;;;;;;5011294;28;20433;-65
2023/10/27 05:58:39;;;;;;;5.25;2.80;;;9.30;99.90;;;;;;5014203;28;20091;-65
2023/10/27 06:01:11;;;;;;;2.80;2.20;;;9.30;99.90;;;;;;5015267;28;20038;-65
2023/10/27 06:03:43;;;;;;;3.15;2.60;;;9.30;99.90;;;;;;5003613;28;20052;-65
2023/10/27 06:06:15;;;;;;;3.50;2.42;;;9.30;99.90;;;;;;5014740;28;20050;-65
2023/10/27 06:08:47;;;;;;;4.18;3.03;;;9.30;99.90;;;;;;5005296;28;20562;-65
2023/10/27 06:11:19;;;;;;;3.88;2.92;;;9.30;99.90;;;;;;5002933;28;20563;-65
2023/10/27 06:13:47;;;;;;;4.82;3.38;;;9.30;99.90;;;;;;5010824;28;20035;-65
2023/10/27 06:16:18;;;;;;;5.38;3.20;;;9.30;99.90;;;;;;5008503;28;20038;-65
2023/10/27 06:18:52;;;;;;;4.75;3.17;;;9.40;99.90;;;;;;5016034;28;20123;-64
2023/10/27 06:21:24;;;;;;;4.50;3.03;;;9.40;99.90;;;;;;5010729;28;20037;-65
2023/10/27 06:23:55;;;;;;;5.20;3.38;;;9.40;99.90;;;;;;5014081;28;20506;-64
2023/10/27 06:26:27;;;;;;;5.75;3.65;;;9.40;99.90;;;;;;5026376;28;20053;-64
2023/10/27 06:28:59;;;;;;;5.88;3.20;;;9.40;99.90;;;;;;5009673;28;20062;-64
2023/10/27 06:31:31;;;;;;;3.30;2.65;;;9.40;99.90;;;;;;5015673;28;20061;-64
2023/10/27 06:34:03;;;;;;;3.10;2.47;;;9.40;99.90;;;;;;5006198;28;20580;-64
2023/10/27 06:36:32;;;;;;;3.40;2.65;;;9.40;99.90;;;;;;5012449;28;20048;-64
2023/10/27 06:39:03;;;;;;;4.18;2.92;;;9.40;99.90;;;;;;5001838;28;20065;-65
2023/10/27 06:41:37;;;;;;;3.28;2.38;;;9.40;99.90;;;;;;5004506;28;20131;-65
2023/10/27 06:44:09;;;;;;;3.45;2.50;;;9.40;99.90;;;;;;4998876;28;20053;-65
2023/10/27 06:46:41;;;;;;;4.90;4.03;;;9.40;99.90;;;;;;5012625;28;20050;-65
2023/10/27 06:49:14;;;;;;;4.72;4.22;;;9.50;99.90;;;;;;5003765;28;20046;-65
2023/10/27 06:51:47;;;;;;;7.15;5.35;;;9.50;99.90;;;;;;5013045;28;20407;-65
2023/10/27 06:54:19;;;;;;;2.97;2.67;;;9.50;99.90;;;;;;5014121;28;20057;-65
2023/10/27 06:56:51;;;;;;;4.10;3.22;;;9.50;99.90;;;;;;5011514;28;20045;-65
2023/10/27 06:59:23;;;;;;;3.85;2.83;;;9.50;99.90;;;;;;5014959;28;20689;-65
2023/10/27 07:01:52;;;;;;;3.95;3.00;;;9.60;99.90;;;;;;5015016;28;20062;-65
2023/10/27 07:04:24;;;;;;;4.45;2.95;;;9.60;99.90;;;;;;5009606;28;20057;-65
2023/10/27 07:06:51;;;;;;;4.18;3.17;;;9.70;99.90;;;;;;5011832;28;20060;-65
2023/10/27 07:09:17;;;;;;;4.20;2.83;;;9.70;99.90;;;;;;5001312;28;20048;-65
2023/10/27 07:11:50;;;;;;;3.63;2.88;;;9.80;99.90;;;;;;5004804;28;20142;-65
2023/10/27 07:14:22;;;;;;;4.28;2.90;;;9.80;99.90;;;;;;5006199;28;20038;-65
2023/10/27 07:16:54;;;;;;;2.53;2.00;;;9.80;99.90;;;;;;5009494;28;20042;-65
2023/10/27 07:19:27;;;;;;;3.38;2.25;;;9.90;99.90;;;;;;5012526;28;20034;-65
2023/10/27 07:21:59;;;;;;;2.83;2.30;;;10.00;99.90;;;;;;5019862;28;20052;-65
2023/10/27 07:24:32;;;;;;;2.17;1.65;;;10.00;99.90;;;;;;5014670;28;20116;-65
2023/10/27 07:26:59;;;;;;;2.80;1.45;;;10.10;99.90;;;;;;5022135;28;20049;-65
2023/10/27 07:29:26;;;;;;;2.25;1.70;;;10.20;99.90;;;;;;5017916;28;20125;-65
2023/10/27 07:31:58;;;;;;;1.65;1.20;;;10.20;99.90;;;;;;5016924;28;20552;-65
2023/10/27 07:34:30;;;;;;;2.42;1.25;;;10.20;99.90;;;;;;5016724;28;20060;-65
2023/10/27 07:37:04;;;;;;;1.92;1.20;;;10.30;99.90;;;;;;5014452;28;20046;-65
2023/10/27 07:39:30;;;;;;;3.83;1.08;;;10.30;99.90;;;;;;5014888;28;20125;-65
2023/10/27 07:42:03;;;;;;;2.05;1.10;;;10.40;99.90;;;;;;5009563;28;20034;-65
2023/10/27 07:44:35;;;;;;;1.42;0.73;;;10.40;99.90;;;;;;4997973;28;20073;-65
2023/10/27 07:47:07;;;;;;;2.00;1.52;;;10.40;99.90;;;;;;5008048;28;20048;-65
2023/10/27 07:49:38;;;;;;;1.20;1.00;;;10.40;99.90;;;;;;5000919;28;20046;-65
2023/10/27 07:52:06;;;;;;;2.25;1.10;;;10.40;99.90;;;;;;5019351;28;20054;-65
2023/10/27 07:54:37;;;;;;;1.10;0.63;;;10.40;99.90;;;;;;5011898;28;20421;-65
2023/10/27 07:57:09;;;;;;;0.95;0.65;;;10.40;99.90;;;;;;5021486;28;20045;-65
2023/10/27 07:59:42;;;;;;;1.20;0.70;;;10.50;99.90;;;;;;5014986;28;20223;-65
2023/10/27 08:02:13;;;;;;;1.33;0.70;;;10.60;99.90;;;;;;5019395;28;20034;-65
2023/10/27 08:04:45;;;;;;;1.75;0.50;;;10.60;99.90;;;;;;5019641;28;20257;-65
2023/10/27 08:07:18;;;;;;;1.50;0.70;;;10.70;99.90;;;;;;5023710;28;20072;-65
2023/10/27 08:09:50;;;;;;;0.50;0.40;;;10.80;99.90;;;;;;5043257;28;20541;-65
2023/10/27 08:12:21;;;;;;;1.40;0.40;;;10.70;99.90;;;;;;5013234;28;20038;-65
2023/10/27 08:14:53;;;;;;;0.60;0.40;;;10.80;99.90;;;;;;5025953;28;20053;-65
2023/10/27 08:17:20;;;;;;;0.55;0.30;;;10.80;99.90;;;;;;5031275;28;20048;-65
2023/10/27 08:19:52;;;;;;;0.38;0.30;;;10.80;99.90;;;;;;5027843;28;20544;-65
2023/10/27 08:22:24;;;;;;;0.50;0.30;;;10.90;99.90;;;;;;5028733;28;20141;-65
2023/10/27 08:24:56;;;;;;;1.38;0.40;;;10.90;99.90;;;;;;5018346;28;20048;-65
2023/10/27 08:27:27;;;;;;;0.63;0.25;;;10.90;99.90;;;;;;5024738;28;20064;-65
2023/10/27 08:29:59;;;;;;;0.80;0.57;;;11.00;99.90;;;;;;5019848;28;20402;-65
2023/10/27 08:32:31;;;;;;;1.10;0.32;;;11.00;99.90;;;;;;5024097;28;20053;-65
2023/10/27 08:34:58;;;;;;;0.55;0.30;;;11.00;99.90;;;;;;5018215;28;20045;-65
2023/10/27 08:37:30;;;;;;;0.30;0.20;;;11.00;99.90;;;;;;5019197;28;20049;-65
2023/10/27 08:39:57;;;;;;;2.25;0.40;;;11.00;99.90;;;;;;5017856;28;20037;-65
2023/10/27 08:42:32;;;;;;;2.28;0.30;;;11.10;99.90;;;;;;5028366;28;20046;-65
2023/10/27 08:45:05;;;;;;;1.20;1.10;;;11.10;99.90;;;;;;5014487;28;20057;-65
2023/10/27 08:47:37;;;;;;;0.38;0.20;;;11.10;99.90;;;;;;5018693;28;20060;-65
2023/10/27 08:50:05;;;;;;;0.90;0.30;;;11.20;99.90;;;;;;5024848;28;20137;-65
2023/10/27 08:52:39;;;;;;;1.05;0.40;;;11.20;99.90;;;;;;5009711;28;20136;-65
2023/10/27 08:55:08;;;;;;;0.90;0.30;;;11.20;99.90;;;;;;5028730;28;20045;-65
2023/10/27 08:57:40;;;;;;;2.92;0.30;;;11.20;99.90;;;;;;5017872;28;20041;-65
2023/10/27 09:00:07;;;;;;;0.20;0.20;;;11.20;99.90;;;;;;5020659;28;20045;-65
2023/10/27 09:02:39;;;;;;;0.20;0.20;;;11.20;99.90;;;;;;5017665;28;20050;-65
2023/10/27 09:05:11;;;;;;;0.65;0.30;;;11.20;99.90;;;;;;5028539;28;20058;-65
2023/10/27 09:07:38;;;;;;;0.47;0.30;;;11.30;99.90;;;;;;5028721;28;20061;-65
2023/10/27 09:10:11;;;;;;;0.25;0.20;;;11.20;99.90;;;;;;5016351;28;20132;-65
2023/10/27 09:12:44;;;;;;;1.13;0.30;;;11.20;99.90;;;;;;5027559;28;20050;-65
2023/10/27 09:15:16;;;;;;;1.48;0.30;;;11.20;99.90;;;;;;5022155;28;20041;-65
2023/10/27 09:17:58;;;;;;;1.63;0.40;;;11.10;99.90;;;;;;5027575;28;20042;-66
2023/10/27 09:20:29;;;;;;;0.70;0.40;;;11.00;99.90;;;;;;5013547;28;20398;-66
2023/10/27 09:23:06;;;;;;;0.70;0.40;;;11.00;99.90;;;;;;5027427;28;20575;-66
2023/10/27 09:25:34;;;;;;;0.40;0.40;;;10.90;99.90;;;;;;5027942;28;20066;-65
2023/10/27 09:28:06;;;;;;;1.23;0.30;;;11.00;99.90;;;;;;5010474;28;20045;-65
2023/10/27 09:30:41;;;;;;;1.50;0.30;;;11.00;99.90;;;;;;5019449;28;20041;-65
2023/10/27 09:33:25;;;;;;;0.90;0.40;;;11.00;99.90;;;;;;5019015;28;20501;-65
2023/10/27 09:35:59;;;;;;;1.73;0.40;;;11.20;99.90;;;;;;5038193;28;20049;-65
2023/10/27 09:38:31;;;;;;;1.05;0.30;;;11.30;99.90;;;;;;5024523;28;20049;-65
2023/10/27 09:41:06;;;;;;;1.40;0.30;;;11.40;99.90;;;;;;5025000;28;20052;-65
2023/10/27 09:43:41;;;;;;;0.93;0.30;;;11.60;99.90;;;;;;5010869;28;20050;-65
2023/10/27 09:46:15;;;;;;;1.52;0.40;;;11.60;99.90;;;;;;5026581;28;20046;-65
2023/10/27 09:48:50;;;;;;;1.83;0.50;;;11.70;99.90;;;;;;5030155;28;20049;-65
2023/10/27 09:51:21;;;;;;;1.30;0.45;;;11.70;99.90;;;;;;5030192;28;20144;-65
2023/10/27 09:53:54;;;;;;;0.90;0.40;;;11.80;99.90;;;;;;5027125;28;20057;-65
2023/10/27 09:56:26;;;;;;;1.20;0.50;;;11.70;99.90;;;;;;5013300;28;20041;-65
2023/10/27 09:59:00;;;;;;;1.42;0.50;;;11.70;99.90;;;;;;5017284;28;20099;-65
2023/10/27 10:01:32;;;;;;;1.83;0.50;;;11.70;99.90;;;;;;5023184;28;20042;-65
2023/10/27 10:03:59;;;;;;;2.80;0.52;;;11.70;99.90;;;;;;5012522;28;20042;-65
2023/10/27 10:06:32;;;;;;;1.80;0.45;;;11.70;99.90;;;;;;5018164;28;20053;-65
2023/10/27 10:09:11;;;;;;;1.30;0.70;;;11.90;99.90;;;;;;5012031;28;20052;-65
2023/10/27 10:11:49;;;;;;;0.63;0.40;;;12.10;99.90;;;;;;5005908;28;20145;-65
2023/10/27 10:14:42;;;;;;;1.02;0.43;;;12.10;99.90;;;;;;5004722;28;20556;-65
2023/10/27 10:17:40;;;;;;;2.28;0.55;;;12.10;99.90;;;;;;5019956;28;20066;-65
2023/10/27 10:20:12;;;;;;;3.38;0.60;;;12.10;99.90;;;;;;5017832;28;20048;-65
2023/10/27 10:22:48;;;;;;;1.38;0.40;;;12.10;99.90;;;;;;5012082;28;20034;-65
2023/10/27 10:25:22;;;;;;;3.03;0.50;;;12.10;99.90;;;;;;5021790;28;20045;-65
2023/10/27 10:28:09;;;;;;;1.42;0.60;;;12.10;99.90;;;;;;5013879;28;20046;-65
2023/10/27 10:30:40;;;;;;;2.50;0.50;;;12.20;99.90;;;;;;5027452;28;20034;-65
2023/10/27 10:33:27;;;;;;;0.88;0.30;;;12.20;99.90;;;;;;5020532;28;20053;-65
2023/10/27 10:36:14;;;;;;;1.40;0.32;;;12.30;99.90;;;;;;5035768;28;20062;-65
2023/10/27 10:38:55;;;;;;;0.82;0.40;;;12.40;99.90;;;;;;5020728;28;20065;-65
2023/10/27 10:41:52;;;;;;;2.25;0.40;;;12.30;99.90;;;;;;5020185;28;20042;-66
2023/10/27 10:44:26;;;;;;;1.15;0.50;;;12.30;99.90;;;;;;5011873;28;20052;-65
2023/10/27 10:47:00;;;;;;;1.23;0.50;;;12.40;99.90;;;;;;5031905;28;20048;-65
2023/10/27 10:49:32;;;;;;;2.15;0.50;;;12.40;99.90;;;;;;5018585;28;20382;-65
2023/10/27 10:52:05;;;;;;;1.90;0.40;;;12.50;99.90;;;;;;5030516;28;20052;-65
2023/10/27 10:54:38;;;;;;;0.93;0.45;;;12.50;99.90;;;;;;5019404;28;20045;-65
2023/10/27 10:57:12;;;;;;;;;;;12.40;99.90;;;;;;5030315;28;20038;-65
2023/10/27 10:59:53;;;;;;;1.27;0.40;;;12.40;99.90;;;;;;5020092;28;19932;-65
2023/10/27 11:02:25;;;;;;;1.58;0.45;;;12.30;99.90;;;;;;5021932;28;20116;-65
2023/10/27 11:04:57;;;;;;;1.58;0.40;;;12.30;99.90;;;;;;5025376;28;20041;-65
2023/10/27 11:07:25;;;;;;;1.52;0.40;;;12.30;99.90;;;;;;5031151;28;20084;-65
2023/10/27 11:10:16;;;;;;;2.20;0.50;;;12.40;99.90;;;;;;5021518;28;20103;-65
2023/10/27 11:12:48;;;;;;;3.55;0.70;;;12.40;99.90;;;;;;5026726;28;20061;-65
2023/10/27 11:15:45;;;;;;;4.40;0.75;;;12.50;99.90;;;;;;5019825;28;20042;-65
2023/10/27 11:18:18;;;;;;;1.73;0.57;;;12.60;99.90;;;;;;5032019;28;20039;-64
2023/10/27 11:20:51;;;;;;;2.03;0.60;;;12.60;99.90;;;;;;5001640;28;20049;-64
2023/10/27 11:23:30;;;;;;;8.07;1.55;;;12.70;99.90;;;;;;5014757;28;20073;-65
2023/10/27 11:26:02;;;;;;;1.50;0.50;;;12.80;99.90;;;;;;5017107;28;20049;-65
2023/10/27 11:28:29;;;;;;;0.82;0.30;;;12.80;99.90;;;;;;5019373;28;20044;-64
2023/10/27 11:31:12;;;;;;;5.30;0.75;;;12.90;99.90;;;;;;5024659;28;20129;-64
2023/10/27 11:33:59;;;;;;;4.38;0.70;;;13.00;99.90;;;;;;5023485;28;20045;-64
2023/10/27 11:36:32;;;;;;;2.33;0.52;;;13.20;99.90;;;;;;5020444;28;20402;-65
2023/10/27 11:39:18;;;;;;;2.72;0.60;;;13.40;99.90;;;;;;5025586;28;20049;-65
2023/10/27 11:41:51;;;;;;;2.90;0.50;;;13.50;99.90;;;;;;5023849;28;20053;-65
2023/10/27 11:44:18;;;;;;;2.00;0.60;;;13.50;99.90;;;;;;5023273;28;20034;-64
2023/10/27 11:46:50;;;;;;;2.85;0.60;;;13.60;99.90;;;;;;5009761;28;20045;-64
2023/10/27 11:49:23;;;;;;;2.45;0.50;;;13.50;99.90;;;;;;5017925;28;20129;-64
2023/10/27 11:51:52;;;;;;;2.10;0.60;;;13.40;99.90;;;;;;5013442;28;20093;-65
2023/10/27 11:54:25;;;;;;;2.35;0.60;;;13.20;99.90;;;;;;5012985;28;20042;-64
2023/10/27 11:56:57;;;;;;;1.90;0.40;;;13.00;99.90;;;;;;5013674;28;20049;-65
2023/10/27 11:59:28;;;;;;;2.78;0.50;;;13.00;99.90;;;;;;5014347;28;20043;-64
2023/10/27 12:01:55;;;;;;;3.22;0.77;;;13.00;99.90;;;;;;5022405;28;20042;-64
2023/10/27 12:04:28;;;;;;;4.07;2.55;;;13.00;99.90;;;;;;5016830;28;20448;-64
2023/10/27 12:06:55;;;;;;;18.63;7.10;;;13.10;99.90;;;;;;5026836;28;20049;-64
2023/10/27 12:09:27;;;;;;;3.75;1.02;;;13.20;99.90;;;;;;5022815;28;20026;-64
2023/10/27 12:11:54;;;;;;;5.75;2.20;;;13.20;99.90;;;;;;5020709;28;20048;-64
2023/10/27 12:14:22;;;;;;;4.88;1.80;;;13.20;99.90;;;;;;5021482;28;20033;-64
2023/10/27 12:16:54;;;;;;;2.08;0.63;;;13.10;99.90;;;;;;5021701;28;20391;-65
2023/10/27 12:19:21;;;;;;;4.93;0.50;;;13.10;99.90;;;;;;5018607;28;21172;-65
2023/10/27 12:21:49;;;;;;;4.38;2.63;;;13.00;99.90;;;;;;5016778;28;20041;-65
2023/10/27 12:24:21;;;;;;;1.58;0.30;;;13.00;99.90;;;;;;5010683;28;20042;-64
2023/10/27 12:26:55;;;;;;;2.13;0.43;;;13.00;99.90;;;;;;5014137;28;20042;-64
2023/10/27 12:29:27;;;;;;;3.65;0.50;;;13.10;99.90;;;;;;5015798;28;20041;-64
2023/10/27 12:32:00;;;;;;;2.83;0.88;;;13.10;99.90;;;;;;5016559;28;20056;-64
2023/10/27 12:34:27;;;;;;;2.20;0.50;;;13.00;99.90;;;;;;5012596;28;20598;-65
2023/10/27 12:36:59;;;;;;;1.40;0.50;;;13.10;99.90;;;;;;5014707;28;20058;-64
2023/10/27 12:39:31;;;;;;;2.05;0.40;;;13.10;99.90;;;;;;5020155;28;20425;-64
2023/10/27 12:42:05;;;;;;;1.08;0.30;;;13.00;99.90;;;;;;5010657;28;20045;-64
2023/10/27 12:44:39;;;;;;;2.28;1.23;;;12.90;99.90;;;;;;5019119;28;20390;-64
2023/10/27 12:47:07;;;;;;;1.25;0.60;;;12.90;99.90;;;;;;5013756;28;20117;-64
2023/10/27 12:49:38;;;;;;;1.15;0.30;;;13.00;99.90;;;;;;5018168;28;20521;-64
2023/10/27 12:52:10;;;;;;;1.00;0.60;;;13.00;99.90;;;;;;5015101;28;20042;-64
2023/10/27 12:54:42;;;;;;;1.00;0.30;;;13.10;99.90;;;;;;5028258;28;20045;-64
2023/10/27 12:57:14;;;;;;;1.35;0.30;;;13.10;99.90;;;;;;5018544;28;20553;-64
2023/10/27 12:59:46;;;;;;;1.08;0.38;;;13.10;99.90;;;;;;5016149;28;20061;-64
2023/10/27 13:02:18;;;;;;;1.23;0.40;;;13.00;99.90;;;;;;5013528;28;20062;-64
2023/10/27 13:04:54;;;;;;;2.78;0.65;;;13.00;99.90;;;;;;5015301;28;20045;-64
2023/10/27 13:07:25;;;;;;;2.53;0.55;;;13.10;99.90;;;;;;5019081;28;20050;-64
2023/10/27 13:09:52;;;;;;;0.73;0.38;;;13.10;99.90;;;;;;5017106;28;20033;-64
2023/10/27 13:12:22;;;;;;;0.90;0.40;;;13.20;99.90;;;;;;5021266;28;20038;-64
2023/10/27 13:14:56;;;;;;;1.90;0.45;;;13.20;99.90;;;;;;5017658;28;20045;-64
2023/10/27 13:17:28;;;;;;;1.85;0.40;;;13.20;99.90;;;;;;5033913;28;20041;-64
2023/10/27 13:19:55;;;;;;;1.58;0.50;;;12.90;99.90;;;;;;5018554;28;20041;-64